Time;durP1;ratioP1;P1;durP2;ratioP2;P2;SDS_P1;SDS_P2;PMS_P1;PMS_P2;Temp;Humidity;BMP_temperature;BMP_pressure;BME280_temperature;BME280_humidity;BME280_pressure;Samples;Min_cycle;Max_cycle;Signal;HPM_P1;HPM_P2
2021/01/19 00:02:04;;;;;;;287.87;144.53;;;;;;;-4.85;75.39;99158.81;119216;1150;65715;-79
2021/01/19 00:04:31;;;;;;;289.83;145.63;;;;;;;-4.79;75.84;99155.33;119229;1150;65143;-79
2021/01/19 00:06:57;;;;;;;286.33;141.20;;;;;;;-4.75;75.53;99150.13;119209;1150;65119;-79
2021/01/19 00:09:23;;;;;;;284.93;141.30;;;;;;;-4.71;76.11;99146.66;119246;1151;65116;-80
2021/01/19 00:11:50;;;;;;;283.65;137.92;;;;;;;-4.72;75.93;99147.51;119047;1151;65127;-80
2021/01/19 00:14:16;;;;;;;289.30;140.50;;;;;;;-4.68;75.91;99141.44;119205;1150;65083;-80
2021/01/19 00:16:42;;;;;;;295.00;140.50;;;;;;;-4.68;76.15;99141.44;119248;1151;65197;-80
2021/01/19 00:19:09;;;;;;;287.70;138.23;;;;;;;-4.65;75.46;99144.02;119227;1150;65118;-80
2021/01/19 00:21:35;;;;;;;292.13;140.50;;;;;;;-4.65;75.86;99125.83;118967;1151;65159;-81
2021/01/19 00:24:02;;;;;;;281.47;134.77;;;;;;;-4.61;75.40;99118.00;119253;1151;65036;-80
2021/01/19 00:26:28;;;;;;;282.60;138.07;;;;;;;-4.61;75.99;99126.66;118826;1151;65135;-80
2021/01/19 00:28:55;;;;;;;275.30;136.33;;;;;;;-4.57;76.28;99125.80;118885;1151;65120;-81
2021/01/19 00:31:21;;;;;;;279.23;141.43;;;;;;;-4.54;76.23;99132.72;119301;1150;65124;-81
2021/01/19 00:33:48;;;;;;;283.40;137.20;;;;;;;-4.52;76.07;99137.05;118964;1151;65143;-79
2021/01/19 00:36:14;;;;;;;263.37;136.43;;;;;;;-4.49;76.44;99125.77;118980;1151;65235;-79
2021/01/19 00:38:41;;;;;;;273.97;135.30;;;;;;;-4.51;75.61;99127.50;119186;1151;65525;-80
2021/01/19 00:41:07;;;;;;;267.77;131.72;;;;;;;-4.56;75.53;99129.26;118990;1151;65193;-79
2021/01/19 00:43:33;;;;;;;264.60;128.83;;;;;;;-4.61;76.02;99131.01;119268;1151;65140;-79
2021/01/19 00:46:00;;;;;;;261.30;130.50;;;;;;;-4.62;75.58;99127.55;118839;1151;65226;-80
2021/01/19 00:48:26;;;;;;;268.93;132.43;;;;;;;-4.60;75.62;99122.36;118979;1151;65131;-79
2021/01/19 00:50:53;;;;;;;256.53;133.10;;;;;;;-4.61;75.48;99125.80;119018;1150;65114;-79
2021/01/19 00:53:19;;;;;;;260.75;128.15;;;;;;;-4.65;75.85;99122.37;118418;1151;65127;-79
2021/01/19 00:55:45;;;;;;;254.73;130.30;;;;;;;-4.65;75.96;99124.97;118683;1151;65101;-79
2021/01/19 00:58:14;;;;;;;265.90;129.57;;;;;;;-4.66;75.58;99118.02;118439;1150;65180;-80
2021/01/19 01:00:41;;;;;;;263.43;131.57;;;;;;;-4.66;75.66;99113.70;118724;1150;65207;-79
2021/01/19 01:03:07;;;;;;;265.57;137.57;;;;;;;-4.62;76.56;99108.48;118714;1150;65162;-80
2021/01/19 01:05:33;;;;;;;267.03;136.60;;;;;;;-4.61;76.55;99105.86;118561;1151;65130;-79
2021/01/19 01:08:02;;;;;;;269.77;137.77;;;;;;;-4.59;75.78;99111.07;118496;1151;65179;-79
2021/01/19 01:10:28;;;;;;;253.93;131.17;;;;;;;-4.62;76.62;99104.14;119013;1150;65120;-81
2021/01/19 01:12:55;;;;;;;267.17;136.87;;;;;;;-4.61;76.65;99105.86;119284;1150;65188;-81
2021/01/19 01:15:30;;;;;;;264.40;133.47;;;;;;;-4.61;75.73;99105.86;119320;1150;65118;-81
2021/01/19 01:17:56;;;;;;;268.80;137.50;;;;;;;-4.61;75.93;99100.66;119271;1150;65127;-80
2021/01/19 01:20:23;;;;;;;262.63;133.73;;;;;;;-4.54;76.08;99102.37;119029;1151;65190;-80
2021/01/19 01:22:50;;;;;;;255.97;133.63;;;;;;;-4.48;76.06;99097.13;118987;1151;65190;-80
2021/01/19 01:25:17;;;;;;;263.70;132.73;;;;;;;-4.51;76.21;99091.95;118976;1150;65153;-80
2021/01/19 01:27:45;;;;;;;275.10;133.45;;;;;;;-4.47;76.66;99093.68;119006;1151;65207;-80
2021/01/19 01:30:16;;;;;;;262.80;137.53;;;;;;;-4.42;76.35;99086.72;119253;1151;65111;-80
2021/01/19 01:32:49;;;;;;;258.60;133.97;;;;;;;-4.35;76.51;99089.28;119042;1151;65287;-80
2021/01/19 01:35:22;;;;;;;262.40;132.53;;;;;;;-4.36;76.98;99082.36;119016;1151;65188;-80
2021/01/19 01:37:51;;;;;;;255.07;133.60;;;;;;;-4.28;77.17;99080.57;118958;1151;65290;-80
2021/01/19 01:40:20;;;;;;;257.90;132.23;;;;;;;-4.28;77.08;99073.63;119283;1150;65100;-80
2021/01/19 01:42:47;;;;;;;271.40;135.95;;;;;;;-4.27;76.57;99075.34;119028;1151;65197;-80
2021/01/19 01:45:18;;;;;;;255.03;132.93;;;;;;;-4.25;76.97;99062.34;119249;1151;65102;-79
2021/01/19 01:47:48;;;;;;;255.00;132.67;;;;;;;-4.17;77.04;99070.09;118749;1150;65149;-79
2021/01/19 01:50:15;;;;;;;;;;;;;;;-4.16;76.83;99051.00;118820;1150;65153;-79
2021/01/19 01:52:42;;;;;;;260.97;129.77;;;;;;;-4.18;76.86;99053.63;118402;1151;65213;-79
2021/01/19 01:55:09;;;;;;;249.47;134.30;;;;;;;-4.13;77.45;99051.86;118625;1150;65119;-80
2021/01/19 01:57:39;;;;;;;254.23;132.63;;;;;;;-4.14;77.75;99055.31;118495;1151;65063;-81
2021/01/19 02:00:07;;;;;;;;;;;;;;;-4.11;77.69;99050.09;118724;1151;65173;-81
2021/01/19 02:02:33;;;;;;;248.53;128.97;;;;;;;-4.02;78.13;99049.17;118729;1150;65147;-80
2021/01/19 02:05:00;;;;;;;247.70;133.87;;;;;;;-3.91;77.58;99047.34;118504;1151;65107;-81
2021/01/19 02:07:45;;;;;;;252.07;133.33;;;;;;;-3.85;77.25;99046.43;118764;1151;65130;-79
2021/01/19 02:10:23;;;;;;;223.10;119.10;;;;;;;-3.80;77.76;99036.84;118722;1150;65146;-79
2021/01/19 02:12:56;;;;;;;179.37;102.87;;;;;;;-3.73;78.68;99035.06;118596;1151;65223;-79
2021/01/19 02:15:36;;;;;;;128.10;73.13;;;;;;;-3.63;79.28;99036.71;118626;1150;65175;-79
2021/01/19 02:18:05;;;;;;;60.60;36.50;;;;;;;-3.51;80.22;99028.76;118623;1150;65124;-79
2021/01/19 02:21:07;;;;;;;39.30;24.60;;;;;;;-3.32;81.01;99030.32;118678;1151;65101;-81
2021/01/19 02:23:50;;;;;;;33.30;21.13;;;;;;;-3.09;81.93;99030.05;118403;1153;65307;-79
2021/01/19 02:26:57;;;;;;;29.67;18.10;;;;;;;-2.90;81.66;99035.05;118590;1150;65130;-81
2021/01/19 02:30:02;;;;;;;23.73;15.97;;;;;;;-2.75;82.89;99026.18;118708;1149;65121;-81
2021/01/19 02:32:46;;;;;;;21.90;15.33;;;;;;;-2.60;83.52;99022.52;118845;1151;65028;-80
2021/01/19 02:35:19;;;;;;;22.93;13.47;;;;;;;-2.48;83.72;99019.72;118914;1151;65204;-81
2021/01/19 02:38:24;;;;;;;22.87;15.97;;;;;;;-2.38;84.07;99008.27;118728;1151;65509;-80
2021/01/19 02:40:54;;;;;;;20.25;13.15;;;;;;;-2.26;84.70;99017.69;118703;1151;65123;-79
2021/01/19 02:43:25;;;;;;;23.37;15.13;;;;;;;-2.19;83.15;99015.83;118541;1150;65217;-79
2021/01/19 02:45:55;;;;;;;23.65;15.25;;;;;;;-2.14;84.84;99008.79;118738;1151;65103;-80
2021/01/19 02:48:23;;;;;;;20.13;13.67;;;;;;;-2.07;84.66;99015.65;118735;1150;65223;-79
2021/01/19 02:50:49;;;;;;;18.30;14.03;;;;;;;-2.03;84.77;99002.53;118751;1150;65071;-80
2021/01/19 02:53:17;;;;;;;21.90;15.60;;;;;;;-1.99;84.91;99006.80;118546;1151;65227;-80
2021/01/19 02:55:45;;;;;;;23.27;16.03;;;;;;;-1.94;84.73;99013.70;118453;1151;65127;-80
2021/01/19 02:58:44;;;;;;;22.43;18.40;;;;;;;-1.90;84.84;99000.55;118724;1151;65126;-79
2021/01/19 03:01:23;;;;;;;23.87;15.38;;;;;;;-1.86;84.58;99004.85;118637;1151;65207;-79
2021/01/19 03:03:51;;;;;;;26.73;17.47;;;;;;;-1.83;84.87;98998.72;118503;1151;65120;-82
2021/01/19 03:06:19;;;;;;;21.63;14.60;;;;;;;-1.81;85.23;98999.56;118638;1150;65458;-81
2021/01/19 03:08:48;;;;;;;22.85;15.35;;;;;;;-1.79;84.21;98998.64;118674;1151;65098;-79
2021/01/19 03:11:16;;;;;;;21.30;14.77;;;;;;;-1.74;84.63;98997.69;118739;1151;65123;-79
2021/01/19 03:13:45;;;;;;;21.23;14.40;;;;;;;-1.73;85.18;98997.67;118757;1151;65155;-79
2021/01/19 03:16:14;;;;;;;23.73;15.63;;;;;;;-1.70;84.86;98994.14;118613;1150;65111;-79
2021/01/19 03:18:43;;;;;;;21.63;16.13;;;;;;;-1.68;84.78;98988.00;118683;1150;65146;-79
2021/01/19 03:21:10;;;;;;;24.75;17.40;;;;;;;-1.64;85.28;98994.03;118626;1150;65281;-81
2021/01/19 03:23:38;;;;;;;19.30;15.20;;;;;;;-1.61;85.34;98993.97;118822;1151;65404;-81
2021/01/19 03:26:06;;;;;;;20.40;14.57;;;;;;;-1.59;85.34;98981.74;118635;1150;65146;-79
2021/01/19 03:28:34;;;;;;;24.35;16.25;;;;;;;-1.58;85.28;98983.45;118682;1150;65641;-81
2021/01/19 03:31:01;;;;;;;22.60;15.20;;;;;;;-1.57;85.30;98974.75;118652;1150;65519;-78
2021/01/19 03:33:28;;;;;;;18.40;13.43;;;;;;;-1.54;86.31;98982.52;118587;1151;65123;-79
2021/01/19 03:35:55;;;;;;;23.43;16.70;;;;;;;-1.50;86.54;98978.09;118409;1150;65159;-79
2021/01/19 03:38:21;;;;;;;21.97;15.50;;;;;;;-1.48;85.87;98977.17;118359;1151;65158;-79
2021/01/19 03:40:48;;;;;;;22.57;15.63;;;;;;;-1.45;86.52;98973.64;118638;1150;65108;-79
2021/01/19 03:43:14;;;;;;;18.83;14.90;;;;;;;-1.42;85.84;98973.58;118639;1149;65146;-80
2021/01/19 03:45:41;;;;;;;20.50;13.10;;;;;;;-1.41;86.22;98970.95;118597;1150;65166;-80
2021/01/19 03:48:07;;;;;;;18.50;14.35;;;;;;;-1.39;87.37;98970.94;118714;1151;65198;-79
2021/01/19 03:50:34;;;;;;;18.73;13.43;;;;;;;-1.39;87.52;98969.17;118511;1151;65137;-79
2021/01/19 03:53:00;;;;;;;19.50;12.77;;;;;;;-1.35;87.10;98975.20;118625;1150;65166;-79
2021/01/19 03:55:30;;;;;;;18.95;13.00;;;;;;;-1.33;87.62;98981.27;118405;1151;65207;-81
2021/01/19 03:57:57;;;;;;;21.35;14.83;;;;;;;-1.30;86.89;98980.34;118463;1151;65129;-79
2021/01/19 04:00:24;;;;;;;16.97;13.17;;;;;;;-1.28;87.01;98983.80;118627;1151;65162;-79
2021/01/19 04:02:51;;;;;;;18.77;13.67;;;;;;;-1.27;87.24;98975.91;118635;1150;65140;-79
2021/01/19 04:05:18;;;;;;;21.33;14.83;;;;;;;-1.25;86.61;98973.27;118675;1150;65114;-81
2021/01/19 04:07:45;;;;;;;20.77;13.93;;;;;;;-1.23;87.35;98977.58;118736;1150;65954;-80
2021/01/19 04:10:14;;;;;;;22.00;15.37;;;;;;;-1.21;86.37;98969.69;118443;1150;65137;-80
2021/01/19 04:12:44;;;;;;;23.90;17.30;;;;;;;-1.19;87.42;98968.77;118712;1151;65076;-80
2021/01/19 04:15:11;;;;;;;22.65;16.05;;;;;;;-1.16;86.85;98970.46;118485;1151;65239;-80
2021/01/19 04:17:38;;;;;;;21.00;13.40;;;;;;;-1.14;87.33;98974.77;118758;1151;65114;-80
2021/01/19 04:20:06;;;;;;;22.80;14.33;;;;;;;-1.12;87.31;98967.77;118734;1150;65104;-80
2021/01/19 04:22:32;;;;;;;24.07;15.90;;;;;;;-1.10;86.39;98967.74;118747;1150;65151;-80
2021/01/19 04:24:59;;;;;;;18.05;13.25;;;;;;;-1.07;86.56;98965.06;118673;1151;65104;-79
2021/01/19 04:27:25;;;;;;;23.75;14.20;;;;;;;-1.05;86.46;98971.13;118446;1151;65096;-80
2021/01/19 04:29:51;;;;;;;25.07;16.33;;;;;;;-1.03;86.95;98971.08;118674;1150;65102;-80
2021/01/19 04:32:17;;;;;;;24.43;16.17;;;;;;;-1.01;87.19;98964.92;118381;1151;65181;-80
2021/01/19 04:34:44;;;;;;;20.67;14.60;;;;;;;-0.98;87.34;98961.38;118422;1149;65114;-79
2021/01/19 04:37:10;;;;;;;23.30;15.20;;;;;;;-0.96;87.10;98967.45;118363;1151;65153;-82
2021/01/19 04:39:37;;;;;;;25.93;14.83;;;;;;;-0.95;86.55;98963.93;118522;1150;65118;-80
2021/01/19 04:42:03;;;;;;;26.57;17.27;;;;;;;-0.93;86.61;98970.85;118442;1151;65222;-79
2021/01/19 04:44:30;;;;;;;23.63;14.97;;;;;;;-0.91;87.38;98974.30;118421;1150;65429;-79
2021/01/19 04:46:58;;;;;;;23.27;14.50;;;;;;;-0.89;86.67;98964.67;118673;1150;65267;-79
2021/01/19 04:49:25;;;;;;;26.50;16.40;;;;;;;-0.88;86.82;98968.15;118622;1151;65150;-80
2021/01/19 04:51:52;;;;;;;24.57;16.70;;;;;;;-0.85;86.88;98960.23;118587;1150;65127;-79
2021/01/19 04:54:22;;;;;;;23.97;14.77;;;;;;;-0.83;87.27;98965.44;118636;1151;65114;-80
2021/01/19 04:56:57;;;;;;;20.63;13.57;;;;;;;-0.80;86.71;98971.46;118693;1150;65140;-80
2021/01/19 04:59:25;;;;;;;22.73;14.17;;;;;;;-0.78;87.33;98961.83;118642;1151;65117;-80
2021/01/19 05:01:55;;;;;;;23.85;15.10;;;;;;;-0.76;86.50;98974.89;118467;1151;65101;-79
2021/01/19 05:04:46;;;;;;;19.65;13.62;;;;;;;-0.74;87.27;98973.97;118621;1150;65104;-80
2021/01/19 05:07:33;;;;;;;15.13;10.63;;;;;;;-0.71;87.25;98973.00;118591;1151;65116;-79
2021/01/19 05:10:12;;;;;;;16.30;12.25;;;;;;;-0.71;87.66;98963.42;118474;1150;65347;-79
2021/01/19 05:12:41;;;;;;;18.03;11.83;;;;;;;-0.70;87.32;98967.75;118695;1151;65108;-81
2021/01/19 05:15:15;;;;;;;18.17;13.50;;;;;;;-0.69;87.61;98966.84;118674;1150;65108;-81
2021/01/19 05:17:42;;;;;;;18.97;13.53;;;;;;;-0.67;87.57;98964.20;118648;1150;65484;-80
2021/01/19 05:20:11;;;;;;;18.43;12.30;;;;;;;-0.65;87.18;98961.57;118487;1151;65132;-81
2021/01/19 05:22:37;;;;;;;17.03;13.03;;;;;;;-0.65;87.02;98966.80;118492;1151;65208;-80
2021/01/19 05:25:05;;;;;;;22.80;15.20;;;;;;;-0.63;87.37;98960.64;118488;1150;65274;-80
2021/01/19 05:27:31;;;;;;;18.93;14.00;;;;;;;-0.62;87.57;98958.88;118530;1151;65123;-80
2021/01/19 05:29:59;;;;;;;19.53;13.33;;;;;;;-0.61;87.48;98960.59;118711;1151;65127;-80
2021/01/19 05:32:37;;;;;;;18.83;13.17;;;;;;;-0.59;87.86;98964.05;118766;1150;65106;-80
2021/01/19 05:35:14;;;;;;;18.07;12.27;;;;;;;-0.58;87.11;98963.13;118555;1151;65159;-80
2021/01/19 05:37:56;;;;;;;21.70;15.80;;;;;;;-0.59;87.58;98959.66;118647;1151;65213;-80
2021/01/19 05:40:24;;;;;;;24.60;16.35;;;;;;;-0.57;87.31;98964.87;118763;1150;65669;-80
2021/01/19 05:42:54;;;;;;;20.60;15.13;;;;;;;-0.56;87.34;98961.35;118646;1150;65110;-80
2021/01/19 05:45:21;;;;;;;23.73;15.90;;;;;;;-0.54;87.42;98973.51;118750;1151;65118;-80
2021/01/19 05:47:48;;;;;;;22.53;14.43;;;;;;;-0.52;87.20;98969.11;118662;1151;65171;-79
2021/01/19 05:50:14;;;;;;;19.73;14.20;;;;;;;-0.51;86.95;98964.73;118723;1150;65255;-79
2021/01/19 05:52:44;;;;;;;23.10;15.10;;;;;;;-0.50;86.72;98966.44;118370;1151;65196;-81
2021/01/19 05:55:11;;;;;;;22.13;15.03;;;;;;;-0.48;87.12;98969.89;118562;1150;65149;-81
2021/01/19 05:57:37;;;;;;;23.05;15.70;;;;;;;-0.47;86.97;98972.48;118718;1150;65049;-80
2021/01/19 06:00:06;;;;;;;22.20;15.23;;;;;;;-0.45;87.29;98973.31;118707;1151;65124;-81
2021/01/19 06:02:43;;;;;;;21.70;15.20;;;;;;;-0.45;87.78;98975.05;119084;1150;65148;-80
2021/01/19 06:05:11;;;;;;;26.13;16.60;;;;;;;-0.45;87.17;98970.70;119192;1150;65005;-80
2021/01/19 06:07:39;;;;;;;20.50;14.53;;;;;;;-0.42;87.55;98963.64;119000;1151;65222;-80
2021/01/19 06:10:17;;;;;;;25.00;17.45;;;;;;;-0.40;87.55;98964.48;119086;1151;65494;-80
2021/01/19 06:12:43;;;;;;;26.40;17.05;;;;;;;-0.40;87.30;98969.72;119211;1150;65124;-80
2021/01/19 06:15:10;;;;;;;25.20;16.80;;;;;;;-0.39;87.75;98963.60;119274;1151;65067;-81
2021/01/19 06:17:37;;;;;;;25.83;17.13;;;;;;;-0.38;87.64;98968.78;119020;1151;65116;-80
2021/01/19 06:20:06;;;;;;;22.50;15.83;;;;;;;-0.35;87.29;98957.37;118723;1150;65079;-80
2021/01/19 06:22:33;;;;;;;21.27;13.47;;;;;;;-0.33;87.13;98961.69;118546;1151;65218;-79
2021/01/19 06:25:02;;;;;;;21.25;14.55;;;;;;;-0.31;87.51;98962.52;118672;1150;65133;-79
2021/01/19 06:27:34;;;;;;;19.00;13.03;;;;;;;-0.29;86.99;98965.97;119236;1151;65146;-80
2021/01/19 06:30:01;;;;;;;21.45;14.05;;;;;;;-0.27;87.71;98958.05;119211;1150;65207;-79
2021/01/19 06:32:33;;;;;;;22.90;14.30;;;;;;;-0.27;87.55;98965.91;119240;1150;65204;-80
2021/01/19 06:35:09;;;;;;;21.35;14.30;;;;;;;-0.26;87.11;98968.52;119020;1151;65082;-80
2021/01/19 06:37:35;;;;;;;25.63;15.47;;;;;;;-0.23;87.49;98968.43;119206;1150;65220;-80
2021/01/19 06:40:11;;;;;;;22.47;15.47;;;;;;;-0.19;87.30;98963.12;119214;1150;65265;-80
2021/01/19 06:42:38;;;;;;;22.47;15.60;;;;;;;-0.16;87.49;98974.37;119260;1150;65232;-80
2021/01/19 06:45:04;;;;;;;24.05;15.50;;;;;;;-0.10;87.00;98968.15;119222;1150;65054;-80
2021/01/19 06:47:41;;;;;;;24.35;15.40;;;;;;;-0.09;86.89;98977.72;119218;1150;65134;-80
2021/01/19 06:50:09;;;;;;;21.40;14.90;;;;;;;-0.09;86.91;98973.33;119228;1151;65101;-78
2021/01/19 06:52:40;;;;;;;23.10;15.57;;;;;;;-0.07;87.32;98982.02;119185;1150;65162;-79
2021/01/19 06:55:22;;;;;;;23.67;15.77;;;;;;;-0.03;87.11;98972.31;119246;1150;65104;-80
2021/01/19 06:57:57;;;;;;;22.50;14.67;;;;;;;0.02;87.02;98972.21;119072;1151;65158;-78
2021/01/19 07:00:24;;;;;;;21.15;16.05;;;;;;;0.06;87.01;98976.49;119235;1150;65129;-79
2021/01/19 07:02:52;;;;;;;23.70;16.00;;;;;;;0.06;87.05;98979.97;119235;1150;65117;-79
2021/01/19 07:05:23;;;;;;;21.75;15.60;;;;;;;0.08;87.56;98975.56;119260;1150;65159;-80
2021/01/19 07:08:21;;;;;;;31.03;18.70;;;;;;;0.08;86.96;98978.17;119247;1150;65230;-80
2021/01/19 07:10:52;;;;;;;24.40;16.07;;;;;;;0.11;87.54;98979.86;119216;1150;65102;-80
2021/01/19 07:13:23;;;;;;;23.33;14.60;;;;;;;0.14;87.57;98978.02;119245;1151;65220;-80
2021/01/19 07:16:03;;;;;;;20.73;14.00;;;;;;;0.16;87.29;98973.60;119128;1150;65137;-79
2021/01/19 07:19:11;;;;;;;23.80;15.53;;;;;;;0.19;87.36;98978.76;119245;1150;65181;-79
2021/01/19 07:22:09;;;;;;;18.87;14.03;;;;;;;0.24;87.27;98973.41;118969;1151;65148;-79
2021/01/19 07:24:46;;;;;;;19.35;13.75;;;;;;;0.28;86.65;98975.03;119204;1151;65139;-81
2021/01/19 07:27:18;;;;;;;19.73;14.17;;;;;;;0.34;86.70;98977.52;119340;1151;65146;-79
2021/01/19 07:29:45;;;;;;;22.47;14.97;;;;;;;0.41;86.38;98967.72;119237;1151;65104;-79
2021/01/19 07:32:15;;;;;;;22.30;15.50;;;;;;;0.44;86.82;98965.02;119193;1150;65094;-79
2021/01/19 07:34:41;;;;;;;24.20;17.00;;;;;;;0.47;86.41;98959.68;119226;1149;65577;-79
2021/01/19 07:37:09;;;;;;;28.47;17.90;;;;;;;0.53;86.48;98959.53;119205;1151;65229;-79
2021/01/19 07:39:36;;;;;;;27.27;18.40;;;;;;;0.62;86.21;98958.42;118951;1151;65109;-79
2021/01/19 07:42:19;;;;;;;25.70;17.00;;;;;;;0.71;86.31;98959.92;118477;1151;65127;-80
2021/01/19 07:45:05;;;;;;;25.40;16.67;;;;;;;0.78;86.19;98954.47;118979;1151;65169;-79
2021/01/19 07:47:40;;;;;;;26.90;16.57;;;;;;;0.79;86.00;98964.07;119174;1150;65462;-79
2021/01/19 07:50:14;;;;;;;25.33;17.30;;;;;;;0.79;85.79;98968.44;118998;1151;65203;-79
2021/01/19 07:52:43;;;;;;;27.57;16.57;;;;;;;0.78;85.94;98970.20;118724;1151;65100;-80
2021/01/19 07:55:17;;;;;;;20.13;15.03;;;;;;;0.80;85.83;98965.78;119077;1150;65129;-79
2021/01/19 07:57:46;;;;;;;20.95;15.45;;;;;;;0.81;85.75;98977.13;119166;1151;65175;-79
2021/01/19 08:00:20;;;;;;;22.73;16.00;;;;;;;0.83;85.33;98970.08;119198;1150;65076;-80
2021/01/19 08:02:46;;;;;;;22.93;15.83;;;;;;;0.85;85.66;98971.76;119061;1150;65053;-79
2021/01/19 08:05:15;;;;;;;27.80;19.50;;;;;;;0.90;85.76;98976.89;118505;1151;65115;-80
2021/01/19 08:07:43;;;;;;;23.20;15.60;;;;;;;0.92;85.55;98966.33;118913;1151;65034;-80
2021/01/19 08:10:27;;;;;;;26.50;17.85;;;;;;;0.94;85.63;98969.78;119116;1150;65205;-79
2021/01/19 08:12:56;;;;;;;24.93;17.00;;;;;;;1.00;84.98;98966.97;118620;1150;65039;-79
2021/01/19 08:15:33;;;;;;;23.90;15.57;;;;;;;1.07;84.65;98960.65;118662;1150;65083;-79
2021/01/19 08:18:03;;;;;;;22.75;16.90;;;;;;;1.10;84.51;98960.55;118885;1150;65126;-79
2021/01/19 08:20:37;;;;;;;25.30;17.13;;;;;;;1.15;84.69;98963.91;118741;1150;65484;-79
2021/01/19 08:23:16;;;;;;;21.40;15.67;;;;;;;1.24;84.36;98965.42;118641;1151;65364;-81
2021/01/19 08:25:44;;;;;;;25.35;17.75;;;;;;;1.29;84.72;98963.49;118623;1150;65129;-77
2021/01/19 08:28:13;;;;;;;19.60;14.53;;;;;;;1.35;84.01;98965.09;119161;1151;65115;-78
2021/01/19 08:30:40;;;;;;;22.20;15.75;;;;;;;1.36;84.38;98961.55;119058;1150;65120;-79
2021/01/19 08:33:07;;;;;;;22.55;15.85;;;;;;;1.34;84.17;98958.97;119203;1149;65098;-78
2021/01/19 08:35:38;;;;;;;21.07;16.17;;;;;;;1.36;83.77;98961.55;118952;1151;65187;-78
2021/01/19 08:38:05;;;;;;;22.10;14.20;;;;;;;1.38;83.75;98965.00;119241;1151;65105;-78
2021/01/19 08:40:34;;;;;;;20.70;13.80;;;;;;;1.42;83.66;98961.36;119230;1150;65577;-78
2021/01/19 08:43:04;;;;;;;20.23;14.90;;;;;;;1.47;83.52;98962.94;119283;1151;65071;-78
2021/01/19 08:45:41;;;;;;;24.07;16.50;;;;;;;1.51;83.39;98968.97;119257;1150;65133;-78
2021/01/19 08:48:09;;;;;;;21.90;15.80;;;;;;;1.52;83.42;98960.17;119223;1150;65279;-78
2021/01/19 08:50:41;;;;;;;20.93;15.50;;;;;;;1.55;83.25;98970.58;119055;1151;65226;-76
2021/01/19 08:53:11;;;;;;;18.80;12.97;;;;;;;1.62;83.19;98968.64;118724;1150;65149;-79
2021/01/19 08:55:37;;;;;;;;;;;;;;;1.67;83.04;98983.34;118658;1150;65057;-76
2021/01/19 08:58:06;;;;;;;20.70;13.73;;;;;;;1.72;83.32;98976.19;118727;1150;65153;-78
2021/01/19 09:00:36;;;;;;;18.35;13.15;;;;;;;1.74;83.18;98981.41;118637;1150;65506;-75
2021/01/19 09:03:14;;;;;;;19.53;14.03;;;;;;;1.75;83.05;98977.86;119100;1151;65220;-76
2021/01/19 09:05:40;;;;;;;21.17;13.30;;;;;;;1.76;83.18;98979.56;118736;1150;65120;-76
2021/01/19 09:08:13;;;;;;;19.37;13.83;;;;;;;1.75;83.30;98981.34;119116;1150;65114;-76
2021/01/19 09:10:40;;;;;;;18.60;14.25;;;;;;;1.78;83.48;98984.78;119237;1150;65044;-76
2021/01/19 09:13:06;;;;;;;21.93;15.23;;;;;;;1.75;83.16;98985.73;118951;1151;65133;-76
2021/01/19 09:15:44;;;;;;;20.20;13.73;;;;;;;1.73;83.72;98988.40;119103;1150;65071;-75
2021/01/19 09:18:13;;;;;;;19.00;13.50;;;;;;;1.75;83.48;98985.73;119294;1150;65039;-78
2021/01/19 09:20:41;;;;;;;19.77;13.87;;;;;;;1.75;83.29;98988.37;118975;1151;65136;-78
2021/01/19 09:23:15;;;;;;;19.63;14.77;;;;;;;1.78;83.73;98983.01;119243;1150;65127;-79
2021/01/19 09:25:46;;;;;;;21.87;16.13;;;;;;;1.83;83.80;98988.98;119208;1151;65175;-78
2021/01/19 09:28:14;;;;;;;20.27;13.37;;;;;;;1.82;83.59;98989.02;119238;1150;65168;-79
2021/01/19 09:30:42;;;;;;;18.93;13.80;;;;;;;1.82;83.69;98983.76;118905;1150;65108;-78
2021/01/19 09:33:11;;;;;;;17.37;12.80;;;;;;;1.83;83.24;98975.84;118955;1150;65124;-80
2021/01/19 09:35:39;;;;;;;15.65;12.55;;;;;;;1.86;83.08;98975.73;118992;1151;65587;-80
2021/01/19 09:38:21;;;;;;;18.85;13.90;;;;;;;1.89;83.41;98974.78;118810;1151;65178;-78
2021/01/19 09:40:48;;;;;;;19.93;13.40;;;;;;;1.90;83.03;98979.15;118708;1150;65127;-79
2021/01/19 09:43:17;;;;;;;16.80;12.50;;;;;;;1.87;83.26;98966.97;118488;1151;65210;-78
2021/01/19 09:45:44;;;;;;;19.23;14.57;;;;;;;1.89;82.97;98964.27;119282;1150;65040;-79
2021/01/19 09:48:13;;;;;;;19.45;13.10;;;;;;;1.90;83.36;98963.38;119268;1150;65127;-79
2021/01/19 09:50:39;;;;;;;20.70;14.83;;;;;;;1.92;82.91;98956.28;119177;1150;65262;-78
2021/01/19 09:53:06;;;;;;;22.50;16.00;;;;;;;1.97;82.81;98957.87;119215;1150;65111;-78
2021/01/19 09:55:33;;;;;;;23.90;16.60;;;;;;;2.06;82.99;98946.20;119206;1150;65134;-78
2021/01/19 09:58:01;;;;;;;25.75;19.35;;;;;;;2.18;82.59;98939.66;119216;1150;65072;-79
2021/01/19 10:00:37;;;;;;;27.27;18.57;;;;;;;2.29;82.91;98934.02;118996;1151;65107;-79
2021/01/19 10:03:15;;;;;;;24.87;17.63;;;;;;;2.39;82.58;98936.28;119206;1150;65238;-79
2021/01/19 10:05:46;;;;;;;21.27;16.23;;;;;;;2.49;81.95;98925.45;119287;1150;65701;-79
2021/01/19 10:08:12;;;;;;;20.05;16.05;;;;;;;2.64;81.99;98919.66;118973;1151;65243;-79
2021/01/19 10:10:43;;;;;;;29.13;18.30;;;;;;;2.77;81.53;98914.81;118734;1151;65098;-78
2021/01/19 10:13:10;;;;;;;23.77;18.67;;;;;;;2.90;81.43;98910.81;118460;1151;65127;-77
2021/01/19 10:15:37;;;;;;;26.70;17.47;;;;;;;3.06;81.32;98901.42;118628;1151;65114;-77
2021/01/19 10:18:04;;;;;;;24.67;16.93;;;;;;;3.22;80.66;98896.42;119024;1150;65121;-79
2021/01/19 10:20:37;;;;;;;21.90;16.67;;;;;;;3.36;80.61;98897.66;119137;1150;65101;-80
2021/01/19 10:23:05;;;;;;;18.27;14.70;;;;;;;3.44;80.01;98890.30;119004;1151;65147;-80
2021/01/19 10:25:34;;;;;;;19.10;15.50;;;;;;;3.52;79.99;98886.44;119008;1150;65226;-79
2021/01/19 10:28:03;;;;;;;22.97;15.83;;;;;;;3.63;80.04;98878.09;119250;1151;65122;-79
2021/01/19 10:30:34;;;;;;;20.03;14.17;;;;;;;3.73;79.29;98883.86;119219;1150;65124;-79
2021/01/19 10:33:02;;;;;;;19.90;15.20;;;;;;;3.78;78.93;98873.98;119107;1150;65163;-78
2021/01/19 10:35:37;;;;;;;17.63;14.33;;;;;;;3.84;78.99;98872.87;118970;1151;65213;-77
2021/01/19 10:38:08;;;;;;;19.25;14.15;;;;;;;3.87;78.82;98873.63;118624;1150;65040;-78
2021/01/19 10:40:44;;;;;;;18.55;14.60;;;;;;;3.89;78.60;98877.03;118717;1150;65676;-77
2021/01/19 10:43:11;;;;;;;20.45;14.65;;;;;;;3.89;78.33;98865.63;119132;1150;65149;-78
2021/01/19 10:45:41;;;;;;;23.03;15.60;;;;;;;3.93;78.28;98872.50;119248;1151;65165;-79
2021/01/19 10:48:22;;;;;;;26.03;16.67;;;;;;;3.98;78.55;98859.11;119236;1150;65085;-79
2021/01/19 10:50:48;;;;;;;20.90;15.40;;;;;;;4.06;77.56;98849.97;119243;1151;65060;-79
2021/01/19 10:53:28;;;;;;;24.67;17.10;;;;;;;4.08;77.74;98845.49;119224;1150;65198;-76
2021/01/19 10:55:55;;;;;;;20.10;14.73;;;;;;;4.12;77.27;98846.20;119235;1149;65134;-77
2021/01/19 10:58:21;;;;;;;18.57;14.17;;;;;;;4.10;77.30;98855.95;119207;1151;65121;-78
2021/01/19 11:00:48;;;;;;;22.15;15.20;;;;;;;4.13;77.12;98853.19;119218;1151;65201;-78
2021/01/19 11:03:14;;;;;;;22.70;15.40;;;;;;;4.15;77.24;98852.20;119202;1150;65111;-78
2021/01/19 11:05:40;;;;;;;27.37;16.50;;;;;;;4.19;76.76;98858.22;118982;1151;65207;-78
2021/01/19 11:08:07;;;;;;;21.25;14.70;;;;;;;4.15;77.03;98843.44;119243;1150;65091;-79
2021/01/19 11:10:34;;;;;;;22.43;15.53;;;;;;;4.12;76.11;98846.20;118650;1150;65182;-78
2021/01/19 11:13:00;;;;;;;22.37;14.53;;;;;;;4.05;76.45;98850.87;119003;1150;65135;-80
2021/01/19 11:15:26;;;;;;;24.00;16.03;;;;;;;4.06;76.44;98843.84;118911;1150;65146;-79
2021/01/19 11:17:54;;;;;;;20.60;15.28;;;;;;;4.07;76.43;98838.48;119214;1150;65377;-79
2021/01/19 11:20:21;;;;;;;25.65;16.40;;;;;;;4.16;76.33;98840.74;118975;1151;65284;-79
2021/01/19 11:22:48;;;;;;;21.50;14.75;;;;;;;4.21;76.72;98834.39;119217;1151;65106;-80
2021/01/19 11:25:16;;;;;;;20.00;15.60;;;;;;;4.20;76.62;98832.69;119205;1150;65111;-80